Hull, United Kingdom
Current Conditions -  °F | °C
As of 6:50 PM on Thursday 27 Nov 2014 (Local Time) from EGXV Reporting Station
Scattered Clouds Scattered Clouds  
Wind Chill: 44°   Ceiling: Unl
Heat Index: 46°   Visibility: 6mi
Dew Point: 46°   Wind: 5mph
Humidity: 100%   Direction: 180°S
Pressure: 29.59"   Gusts: NA
Location:  53.74°N, 0.34°W
Report Text: EGXV 271850Z AUTO 18004KT 9999 SCT024/// SCT110/// 08/08 Q1002
Loading
Personal Weather Stations






























Interactive Weather Map New forecast layout! Learn more

10-Day Weather Forecast

Advertisements
Track Severe Weather on mobile